Time;durP1;ratioP1;P1;durP2;ratioP2;P2;SDS_P1;SDS_P2;PMS_P1;PMS_P2;Temp;Humidity;BMP_temperature;BMP_pressure;BME280_temperature;BME280_humidity;BME280_pressure;Samples;Min_cycle;Max_cycle;Signal;HPM_P1;HPM_P2
2023/02/19 00:01:16;;;;;;;;;2.00;2.00;;;;;12.61;62.98;98468.59;7739893;22;96410;-70
2023/02/19 00:04:22;;;;;;;;;3.40;3.40;;;;;12.62;63.05;98481.03;7740605;22;96228;-70
2023/02/19 00:07:25;;;;;;;;;3.00;3.00;;;;;12.60;62.79;98467.78;7713119;22;98877;-71
2023/02/19 00:10:31;;;;;;;;;4.00;3.40;;;;;12.43;63.37;98451.53;7739496;22;96333;-72
2023/02/19 00:13:35;;;;;;;;;4.00;3.00;;;;;12.47;62.96;98459.97;7713291;22;96644;-71
2023/02/19 00:16:39;;;;;;;;;3.00;3.00;;;;;12.43;62.93;98451.53;7740226;22;96290;-70
2023/02/19 00:19:43;;;;;;;;;2.75;2.75;;;;;12.34;63.12;98453.00;7712900;22;98606;-70
2023/02/19 00:22:46;;;;;;;;;4.50;3.50;;;;;12.17;63.67;98449.44;7714092;22;96232;-71
2023/02/19 00:25:51;;;;;;;;;2.00;2.00;;;;;12.24;63.72;98458.22;7713708;22;97163;-70
2023/02/19 00:28:56;;;;;;;;;2.00;2.00;;;;;12.14;63.83;98447.22;7741612;22;96527;-71
2023/02/19 00:32:00;;;;;;;;;2.60;2.60;;;;;12.28;63.70;98462.06;7713325;22;98350;-70
2023/02/19 00:35:04;;;;;;;;;2.00;2.00;;;;;12.24;63.92;98460.09;7741761;22;96264;-71
2023/02/19 00:38:07;;;;;;;;;2.60;2.60;;;;;12.17;64.08;98460.22;7713853;22;96848;-71
2023/02/19 00:41:20;;;;;;;;;4.00;3.00;;;;;12.07;64.12;98433.84;7741334;22;96167;-71
2023/02/19 00:44:23;;;;;;;;;3.00;3.00;;;;;12.28;64.25;98442.31;7714189;22;97466;-71
2023/02/19 00:47:26;;;;;;;;;5.00;5.00;;;;;12.26;64.07;98450.69;7714025;22;96648;-71
2023/02/19 00:50:30;;;;;;;;;4.00;3.00;;;;;12.23;64.31;98431.44;7711680;22;96457;-71
2023/02/19 00:53:33;;;;;;;;;4.00;3.50;;;;;12.22;64.30;98436.00;7738448;22;96432;-71
2023/02/19 00:56:38;;;;;;;;;4.00;4.00;;;;;12.25;64.00;98442.81;7739123;22;96703;-71
2023/02/19 00:59:41;;;;;;;;;3.00;3.00;;;;;12.05;64.00;98395.47;7739211;22;96333;-71
2023/02/19 01:02:45;;;;;;;;;4.40;4.40;;;;;12.23;64.31;98432.25;7738803;22;96448;-71
2023/02/19 01:05:48;;;;;;;;;5.00;5.00;;;;;12.21;64.58;98430.88;7738801;22;96237;-71
2023/02/19 01:08:52;;;;;;;;;6.00;6.00;;;;;12.13;65.23;98429.34;7738925;22;96459;-70
2023/02/19 01:11:57;;;;;;;;;6.00;5.00;;;;;12.01;65.60;98417.81;7738544;22;96759;-71
2023/02/19 01:15:00;;;;;;;;;8.00;7.00;;;;;12.04;65.22;98417.31;7738491;22;96237;-70
2023/02/19 01:18:04;;;;;;;;;5.60;5.60;;;;;12.01;65.33;98426.72;7711896;22;96233;-70
2023/02/19 01:21:08;;;;;;;;;4.00;3.80;;;;;11.73;65.59;98403.22;7738457;22;96238;-71
2023/02/19 01:24:12;;;;;;;;;5.20;5.20;;;;;11.91;65.61;98410.34;7738426;22;96256;-71
2023/02/19 01:27:17;;;;;;;;;6.00;5.80;;;;;11.80;65.04;98403.09;7711120;22;96696;-71
2023/02/19 01:30:21;;;;;;;;;6.00;5.00;;;;;11.91;64.95;98404.09;7738227;22;96244;-71
2023/02/19 01:33:24;;;;;;;;;5.40;5.00;;;;;11.88;64.83;98412.69;7710999;22;96317;-70
2023/02/19 01:36:28;;;;;;;;;6.00;5.00;;;;;11.86;64.72;98412.13;7739411;22;96195;-71
2023/02/19 01:39:31;;;;;;;;;4.00;4.00;;;;;11.84;64.81;98411.53;7738944;22;96318;-71
2023/02/19 01:42:36;;;;;;;;;8.00;6.00;;;;;11.78;65.03;98405.19;7685186;22;96888;-70
2023/02/19 01:45:43;;;;;;;;;3.00;3.00;;;;;11.71;65.60;98408.03;7739048;22;96320;-71
2023/02/19 01:48:47;;;;;;;;;4.60;4.00;;;;;11.76;65.76;98406.53;7739318;22;96211;-71
2023/02/19 01:51:57;;;;;;;;;7.00;6.00;;;;;11.76;66.05;98412.75;7738549;22;96293;-70
2023/02/19 01:55:04;;;;;;;;;6.00;5.25;;;;;11.76;66.34;98401.13;7739130;22;96206;-71
2023/02/19 01:58:10;;;;;;;;;5.00;5.00;;;;;11.68;66.98;98394.16;7738675;22;96292;-71
2023/02/19 02:01:14;;;;;;;;;6.00;6.00;;;;;11.54;66.95;98361.25;7738110;22;96424;-70
2023/02/19 02:04:19;;;;;;;;;7.00;6.00;;;;;11.77;66.82;98400.88;7711856;22;96235;-71
2023/02/19 02:10:44;;;;;;;;;5.50;5.50;;;;;11.71;67.15;98391.00;7710638;22;96564;-70
2023/02/19 02:13:50;;;;;;;;;4.00;4.00;;;;;11.70;67.17;98390.19;7685712;22;96890;-70
2023/02/19 02:17:01;;;;;;;;;5.00;5.00;;;;;11.71;66.86;98399.09;7711299;22;96236;-71
2023/02/19 02:20:25;;;;;;;;;5.00;4.25;;;;;11.61;66.81;98390.81;7685145;22;96834;-70
2023/02/19 02:23:40;;;;;;;;;4.00;4.00;;;;;11.70;66.72;98400.16;7739114;22;96234;-70
2023/02/19 02:26:58;;;;;;;;;4.00;4.00;;;;;11.73;66.91;98400.53;7711752;22;96765;-70
2023/02/19 02:30:34;;;;;;;;;3.00;3.00;;;;;11.73;67.22;98397.00;7711285;22;97557;-71
2023/02/19 02:33:44;;;;;;;;;5.00;4.80;;;;;11.73;67.02;98409.72;7710296;22;96774;-70
2023/02/19 02:36:52;;;;;;;;;4.80;4.40;;;;;11.70;67.44;98408.25;7711766;22;96303;-71
2023/02/19 02:39:58;;;;;;;;;6.60;6.00;;;;;11.73;67.32;98397.00;7711560;22;96171;-70
2023/02/19 02:43:02;;;;;;;;;5.50;5.50;;;;;11.71;67.63;98402.63;7712029;22;96273;-70
2023/02/19 02:46:10;;;;;;;;;4.60;4.60;;;;;11.70;67.62;98394.75;7710649;22;96330;-71
2023/02/19 02:49:19;;;;;;;;;4.00;4.00;;;;;11.73;67.54;98397.00;7685540;22;97013;-71
2023/02/19 02:55:44;;;;;;;;;5.00;4.40;;;;;11.71;67.51;98391.84;7737076;22;96706;-70
2023/02/19 02:58:50;;;;;;;;;3.00;3.00;;;;;11.73;66.95;98397.00;7710929;22;96388;-70
2023/02/19 03:02:10;;;;;;;;;3.20;3.20;;;;;11.61;67.25;98377.31;7711189;22;96257;-70
2023/02/19 03:08:43;;;;;;;;;5.40;4.40;;;;;11.58;67.97;98375.91;7684591;22;98275;-68
2023/02/19 03:22:10;;;;;;;;;5.40;5.00;;;;;11.80;68.69;98369.84;7710732;22;96885;-71
2023/02/19 03:32:25;;;;;;;;;7.00;7.00;;;;;11.86;68.16;98369.72;7594524;22;96796;-70
2023/02/19 03:35:37;;;;;;;;;6.20;5.00;;;;;11.84;68.24;98365.59;7595883;22;96211;-71
2023/02/19 03:38:52;;;;;;;;;7.75;6.75;;;;;11.89;68.03;98352.19;7710864;22;96223;-71
2023/02/19 03:42:02;;;;;;;;;6.00;6.00;;;;;11.92;67.80;98351.72;7711259;22;96277;-70
2023/02/19 03:45:35;;;;;;;;;6.40;6.00;;;;;11.79;68.32;98341.22;7710735;22;96224;-71
2023/02/19 03:48:46;;;;;;;;;7.00;6.00;;;;;11.89;68.35;98346.78;7701652;22;96199;-70
2023/02/19 03:51:57;;;;;;;;;5.40;5.00;;;;;11.89;68.71;98353.03;7683423;22;97488;-70
2023/02/19 03:55:06;;;;;;;;;4.00;4.00;;;;;11.90;68.38;98351.13;7737356;22;96776;-71
2023/02/19 03:58:17;;;;;;;;;4.60;4.60;;;;;11.94;68.16;98347.72;7710194;22;96325;-71
2023/02/19 04:01:30;;;;;;;;;7.00;6.00;;;;;11.93;68.10;98339.84;7710687;22;96297;-71
2023/02/19 04:04:39;;;;;;;;;8.00;7.00;;;;;12.03;67.97;98345.41;7710322;22;96261;-71
2023/02/19 04:07:49;;;;;;;;;7.00;6.00;;;;;12.07;67.77;98341.97;7684324;22;97178;-70
2023/02/19 04:10:59;;;;;;;;;4.00;4.00;;;;;12.04;67.98;98339.78;7710309;22;96926;-71
2023/02/19 04:14:11;;;;;;;;;5.00;5.00;;;;;11.99;68.16;98342.41;7710310;22;96234;-71
2023/02/19 04:17:22;;;;;;;;;5.00;5.00;;;;;11.90;68.29;98324.94;7737666;22;96854;-71
2023/02/19 04:20:29;;;;;;;;;5.60;5.00;;;;;11.99;68.38;98334.28;7707326;22;96990;-70
2023/02/19 04:23:40;;;;;;;;;6.25;6.25;;;;;12.02;68.29;98327.59;7709762;22;96324;-71
2023/02/19 04:26:45;;;;;;;;;7.00;7.00;;;;;11.91;68.33;98309.56;7738107;22;96237;-70
2023/02/19 04:29:48;;;;;;;;;4.80;4.20;;;;;11.96;68.60;98320.47;7712278;22;96806;-71
2023/02/19 04:32:52;;;;;;;;;5.00;4.40;;;;;11.93;68.55;98312.81;7738804;22;96181;-70
2023/02/19 04:35:55;;;;;;;;;6.00;6.00;;;;;11.95;68.77;98299.91;7738869;22;96155;-71
2023/02/19 04:39:00;;;;;;;;;5.60;5.60;;;;;11.94;68.79;98296.38;7738625;22;96676;-70
2023/02/19 04:42:04;;;;;;;;;6.00;6.00;;;;;11.97;68.41;98285.06;7738590;22;96522;-70
2023/02/19 04:45:08;;;;;;;;;5.00;4.20;;;;;11.95;68.53;98292.63;7738873;22;96828;-71
2023/02/19 04:48:12;;;;;;;;;4.50;4.00;;;;;11.95;68.50;98291.81;7738668;22;96474;-71
2023/02/19 04:51:15;;;;;;;;;4.80;4.00;;;;;11.92;68.54;98293.13;7738866;22;96182;-71
2023/02/19 04:54:20;;;;;;;;;6.00;5.60;;;;;11.95;68.51;98294.50;7738363;22;96498;-71
2023/02/19 04:57:23;;;;;;;;;6.00;6.00;;;;;11.96;68.48;98296.97;7739369;22;96138;-70
2023/02/19 05:00:26;;;;;;;;;5.20;5.20;;;;;12.02;68.52;98309.47;7738922;22;96532;-70
2023/02/19 05:03:31;;;;;;;;;5.50;4.50;;;;;11.99;68.25;98303.75;7737802;22;96255;-70
2023/02/19 05:06:35;;;;;;;;;4.00;4.00;;;;;11.95;68.36;98302.59;7711339;22;98895;-71
2023/02/19 05:09:39;;;;;;;;;5.00;5.00;;;;;12.00;68.07;98297.28;7710684;22;96291;-70
2023/02/19 05:12:43;;;;;;;;;4.75;4.75;;;;;12.06;67.90;98294.44;7711094;22;96590;-71
2023/02/19 05:15:55;;;;;;;;;4.00;4.00;;;;;11.97;67.97;98290.47;7739181;22;96242;-71
2023/02/19 05:18:59;;;;;;;;;6.20;6.00;;;;;11.89;68.02;98281.97;7738913;22;96360;-70
2023/02/19 05:22:02;;;;;;;;;6.00;5.40;;;;;11.69;67.85;98231.94;7737135;22;96337;-71
2023/02/19 05:25:07;;;;;;;;;6.00;5.67;;;;;11.99;67.47;98285.66;7736838;22;96510;-71
2023/02/19 05:28:19;;;;;;;;;6.40;6.40;;;;;12.01;67.48;98278.16;7736358;22;96821;-71
2023/02/19 05:31:23;;;;;;;;;4.00;4.00;;;;;11.93;67.30;98270.44;7709640;22;96227;-71
2023/02/19 05:34:26;;;;;;;;;5.00;5.00;;;;;11.94;67.49;98263.97;7737451;22;96374;-70
2023/02/19 05:37:30;;;;;;;;;5.40;5.00;;;;;11.95;67.53;98262.91;7737300;22;96830;-71
2023/02/19 05:40:35;;;;;;;;;5.00;5.00;;;;;11.84;67.23;98234.09;7738294;22;96167;-71
2023/02/19 05:43:39;;;;;;;;;5.00;4.00;;;;;11.97;67.02;98255.38;7738467;22;96200;-68
2023/02/19 05:46:42;;;;;;;;;3.75;3.00;;;;;11.96;67.12;98248.34;7736946;22;96312;-71
2023/02/19 05:49:45;;;;;;;;;4.00;3.60;;;;;11.97;66.83;98230.25;7734238;22;97563;-69
2023/02/19 05:52:49;;;;;;;;;3.60;3.60;;;;;11.90;67.36;98235.81;7736962;22;96859;-69
2023/02/19 05:55:54;;;;;;;;;4.00;3.80;;;;;11.92;67.00;98227.47;7737082;22;96354;-69
2023/02/19 05:58:58;;;;;;;;;5.00;5.00;;;;;11.84;67.23;98226.00;7708990;22;96317;-69
2023/02/19 06:02:01;;;;;;;;;4.00;3.00;;;;;11.88;67.28;98237.09;7736305;22;96414;-69
2023/02/19 06:05:05;;;;;;;;;7.00;6.00;;;;;11.86;67.46;98245.47;7736867;22;96072;-69
2023/02/19 06:08:09;;;;;;;;;4.00;4.00;;;;;11.91;67.55;98242.88;7736563;22;96363;-69
2023/02/19 06:11:14;;;;;;;;;5.00;5.00;;;;;11.90;67.60;98243.91;7709261;22;96495;-72
2023/02/19 06:14:17;;;;;;;;;4.00;4.00;;;;;11.90;67.75;98240.41;7737556;22;96289;-68
2023/02/19 06:17:21;;;;;;;;;7.00;6.00;;;;;11.88;67.99;98229.81;7710801;22;97089;-69
2023/02/19 06:20:24;;;;;;;;;6.40;6.00;;;;;11.87;67.95;98222.00;7709894;22;98319;-69
2023/02/19 06:23:28;;;;;;;;;7.00;6.00;;;;;11.94;68.04;98223.44;7738109;22;96281;-68
2023/02/19 06:26:33;;;;;;;;;8.00;7.00;;;;;12.00;67.86;98218.94;7709906;22;97016;-68
2023/02/19 06:29:37;;;;;;;;;7.80;7.20;;;;;11.96;68.08;98207.81;7738454;22;96258;-72
2023/02/19 06:32:40;;;;;;;;;8.00;8.00;;;;;11.98;68.23;98216.47;7709934;22;97940;-71
2023/02/19 06:35:43;;;;;;;;;7.00;6.00;;;;;11.93;68.50;98207.47;7710907;22;96596;-69
2023/02/19 06:38:47;;;;;;;;;7.20;7.20;;;;;11.85;68.27;98183.59;7738251;22;96507;-71
2023/02/19 06:41:55;;;;;;;;;10.00;10.00;;;;;12.06;68.09;98212.56;7738299;22;96304;-71
2023/02/19 06:44:58;;;;;;;;;9.00;9.00;;;;;12.08;68.27;98226.63;7737631;22;96348;-71
2023/02/19 06:48:02;;;;;;;;;8.50;8.50;;;;;12.05;68.50;98219.03;7737231;22;96210;-69
2023/02/19 06:51:05;;;;;;;;;8.25;7.50;;;;;12.09;68.39;98229.09;7710088;22;98782;-69
2023/02/19 06:54:09;;;;;;;;;8.75;7.75;;;;;12.12;68.31;98228.59;7737195;22;96466;-69
2023/02/19 06:57:13;;;;;;;;;10.00;9.60;;;;;12.14;68.09;98225.66;7737351;22;96341;-69
2023/02/19 07:00:18;;;;;;;;;11.60;11.00;;;;;12.21;67.84;98225.47;7709693;22;97222;-69
2023/02/19 07:03:21;;;;;;;;;13.60;12.40;;;;;12.36;67.61;98234.63;7736375;22;96305;-68
2023/02/19 07:06:26;;;;;;;;;13.00;11.60;;;;;12.42;67.55;98230.09;7736364;22;96311;-69
2023/02/19 07:09:29;;;;;;;;;12.50;11.75;;;;;12.45;67.38;98229.59;7709113;22;96942;-68
2023/02/19 07:12:34;;;;;;;;;13.00;12.50;;;;;12.45;67.38;98222.31;7735097;22;96200;-68
2023/02/19 07:15:38;;;;;;;;;13.00;11.60;;;;;12.51;67.16;98225.91;7708964;22;96803;-68
2023/02/19 07:18:41;;;;;;;;;13.00;12.00;;;;;12.57;67.06;98224.91;7736495;22;96227;-71
2023/02/19 07:21:44;;;;;;;;;14.00;12.20;;;;;12.61;66.66;98220.63;7736826;22;96160;-71
2023/02/19 07:24:48;;;;;;;;;13.00;11.00;;;;;12.66;66.48;98215.28;7709840;22;96840;-71
2023/02/19 07:27:52;;;;;;;;;11.00;10.50;;;;;12.64;66.60;98208.50;7736989;22;96348;-72
2023/02/19 07:31:00;;;;;;;;;11.80;10.20;;;;;12.66;66.34;98217.19;7708406;22;96208;-71
2023/02/19 07:34:04;;;;;;;;;13.00;12.75;;;;;12.62;66.43;98206.03;7735478;22;96846;-68
2023/02/19 07:37:07;;;;;;;;;14.00;13.40;;;;;12.63;66.64;98210.38;7734867;22;97034;-72
2023/02/19 07:40:11;;;;;;;;;14.60;14.00;;;;;12.65;66.50;98212.84;7708245;22;96672;-71
2023/02/19 07:43:15;;;;;;;;;11.00;10.40;;;;;12.48;66.88;98210.19;7735893;22;96818;-71
2023/02/19 07:46:19;;;;;;;;;13.00;11.60;;;;;12.49;67.08;98207.22;7708259;22;96902;-71
2023/02/19 07:49:22;;;;;;;;;11.60;10.60;;;;;12.37;66.94;98194.88;7733827;22;96513;-72
2023/02/19 07:52:27;;;;;;;;;13.20;11.60;;;;;12.48;66.51;98202.06;7731904;22;96725;-71
2023/02/19 07:55:31;;;;;;;;;9.60;9.00;;;;;12.59;66.34;98201.13;7732884;22;96927;-72
2023/02/19 07:58:36;;;;;;;;;11.50;11.00;;;;;12.68;66.14;98207.72;7734485;22;96067;-71
2023/02/19 08:05:00;;;;;;;;;11.20;10.20;;;;;12.97;65.90;98203.75;7738145;22;96302;-71
2023/02/19 08:08:06;;;;;;;;;12.00;11.00;;;;;13.17;65.11;98207.78;7737489;22;96270;-72
2023/02/19 08:14:31;;;;;;;;;15.00;13.00;;;;;13.26;64.45;98195.44;7705004;22;96268;-71
2023/02/19 08:17:35;;;;;;;;;16.60;14.60;;;;;13.20;64.49;98189.13;7709133;22;96230;-70
2023/02/19 08:20:39;;;;;;;;;13.60;12.60;;;;;13.16;64.76;98181.78;7735789;22;96874;-71
2023/02/19 08:23:43;;;;;;;;;15.25;14.25;;;;;13.19;64.85;98184.00;7707691;22;98476;-71
2023/02/19 08:26:46;;;;;;;;;13.00;12.00;;;;;13.26;64.85;98184.59;7735305;22;96275;-69
2023/02/19 08:29:51;;;;;;;;;13.00;12.00;;;;;13.27;64.52;98180.81;7736511;22;96447;-69
2023/02/19 08:32:55;;;;;;;;;13.60;13.00;;;;;13.26;64.24;98193.53;7735828;22;96900;-69
2023/02/19 08:36:03;;;;;;;;;11.40;11.00;;;;;13.41;64.32;98187.44;7710080;22;98753;-69
2023/02/19 08:39:06;;;;;;;;;14.00;12.00;;;;;13.36;64.36;98184.69;7682940;22;96810;-69
2023/02/19 08:42:10;;;;;;;;;12.00;11.00;;;;;13.37;64.45;98187.16;7735464;22;96179;-70
2023/02/19 08:45:15;;;;;;;;;12.40;11.00;;;;;13.34;64.89;98194.97;7737224;22;96501;-68
2023/02/19 08:48:18;;;;;;;;;13.00;11.00;;;;;13.39;64.67;98193.13;7737033;22;96336;-69
2023/02/19 08:51:21;;;;;;;;;12.40;12.00;;;;;13.49;64.86;98186.19;7709735;22;96449;-69
2023/02/19 08:54:25;;;;;;;;;14.00;13.00;;;;;13.53;64.89;98190.81;7735303;22;97398;-69
2023/02/19 08:57:29;;;;;;;;;15.40;12.00;;;;;13.43;65.04;98183.44;7733482;22;96402;-69
2023/02/19 09:00:33;;;;;;;;;13.80;12.80;;;;;13.52;64.88;98191.91;7736068;22;96657;-69
2023/02/19 09:03:37;;;;;;;;;16.00;15.00;;;;;13.51;65.07;98181.31;7735239;22;96721;-69
2023/02/19 09:06:40;;;;;;;;;13.00;12.00;;;;;13.51;64.98;98168.59;7737156;22;96298;-69
2023/02/19 09:09:44;;;;;;;;;13.00;13.00;;;;;13.55;64.93;98174.31;7735719;22;96519;-69
2023/02/19 09:12:47;;;;;;;;;14.60;12.60;;;;;13.61;64.71;98171.38;7736198;22;96950;-69
2023/02/19 09:15:51;;;;;;;;;12.00;11.00;;;;;13.29;64.57;98141.59;7736823;22;96506;-69
2023/02/19 09:18:55;;;;;;;;;13.60;13.00;;;;;13.47;64.39;98191.03;7734668;22;96225;-69
2023/02/19 09:21:58;;;;;;;;;10.60;10.00;;;;;13.39;64.42;98184.16;7735731;22;96850;-70
2023/02/19 09:25:02;;;;;;;;;11.67;10.67;;;;;13.35;65.04;98167.63;7736212;22;96293;-69
2023/02/19 09:28:05;;;;;;;;;10.00;8.75;;;;;13.38;64.98;98179.84;7735212;22;96915;-71
2023/02/19 09:31:12;;;;;;;;;9.00;7.40;;;;;13.45;65.14;98169.63;7730124;22;96281;-70
2023/02/19 09:34:16;;;;;;;;;9.20;8.20;;;;;13.47;64.95;98181.03;7736142;22;97065;-69
2023/02/19 09:37:19;;;;;;;;;8.00;7.50;;;;;13.50;64.69;98195.91;7735254;22;96476;-69
2023/02/19 09:40:22;;;;;;;;;11.00;9.00;;;;;13.43;64.08;98188.03;7706140;22;97160;-69
2023/02/19 09:43:29;;;;;;;;;8.00;8.00;;;;;13.29;64.09;98193.00;7735138;22;96979;-70
2023/02/19 09:46:40;;;;;;;;;5.00;5.00;;;;;13.22;64.64;98195.13;7735550;22;96339;-70
2023/02/19 09:49:48;;;;;;;;;7.00;7.00;;;;;13.17;64.75;98183.44;7733863;22;96319;-69
2023/02/19 09:52:56;;;;;;;;;7.00;6.00;;;;;13.25;64.66;98201.91;7708743;22;96274;-70
2023/02/19 09:56:01;;;;;;;;;7.00;7.00;;;;;13.19;64.35;98195.66;7733674;22;96546;-70
2023/02/19 09:59:06;;;;;;;;;5.00;4.00;;;;;13.14;64.63;98205.59;7735064;22;96335;-70
2023/02/19 10:02:16;;;;;;;;;5.00;5.00;;;;;13.22;63.20;98210.53;7734487;22;96243;-69
2023/02/19 10:05:21;;;;;;;;;4.00;3.00;;;;;13.24;59.72;98213.81;7735588;22;96816;-68
2023/02/19 10:08:24;;;;;;;;;4.00;4.00;;;;;13.14;59.48;98214.53;7737448;22;96409;-68
2023/02/19 10:11:28;;;;;;;;;4.00;4.00;;;;;13.02;59.46;98211.13;7736813;22;96185;-66
2023/02/19 10:14:39;;;;;;;;;3.00;3.00;;;;;13.02;60.24;98211.94;7737656;22;96869;-63
2023/02/19 10:17:44;;;;;;;;;3.00;3.00;;;;;13.03;60.29;98226.28;7737748;22;96334;-67
2023/02/19 10:20:48;;;;;;;;;5.50;5.50;;;;;13.03;60.19;98218.16;7736892;22;96158;-67
2023/02/19 10:23:59;;;;;;;;;4.00;3.00;;;;;12.93;60.00;98223.47;7710723;22;96278;-66
2023/02/19 10:27:02;;;;;;;;;3.80;3.80;;;;;12.92;60.19;98228.03;7738015;22;97978;-67
2023/02/19 10:30:14;;;;;;;;;5.00;5.00;;;;;12.95;60.40;98226.75;7735934;22;96229;-68
2023/02/19 10:33:19;;;;;;;;;5.00;3.25;;;;;12.94;60.93;98230.50;7736137;22;96492;-67
2023/02/19 10:36:28;;;;;;;;;3.00;3.00;;;;;12.95;60.39;98238.34;7737086;22;96551;-67
2023/02/19 10:39:41;;;;;;;;;3.00;3.00;;;;;12.91;59.88;98236.41;7737969;22;96282;-67
2023/02/19 10:42:47;;;;;;;;;6.00;5.00;;;;;12.83;59.89;98243.09;7737142;22;96237;-67
2023/02/19 10:45:51;;;;;;;;;3.60;3.60;;;;;12.93;60.42;98251.34;7736868;22;96733;-67
2023/02/19 10:49:00;;;;;;;;;3.00;2.80;;;;;12.90;60.31;98251.03;7736941;22;97454;-67
2023/02/19 10:52:16;;;;;;;;;3.25;3.25;;;;;12.95;60.21;98251.88;7737076;22;96182;-67
2023/02/19 10:55:28;;;;;;;;;5.00;5.00;;;;;13.02;60.03;98263.34;7736710;22;96290;-68
2023/02/19 10:58:33;;;;;;;;;4.80;4.00;;;;;13.10;59.96;98258.53;7737734;22;96331;-67
2023/02/19 11:01:39;;;;;;;;;5.20;5.20;;;;;13.06;59.98;98276.34;7736162;22;96476;-68
2023/02/19 11:05:04;;;;;;;;;6.00;5.40;;;;;12.85;59.10;98286.13;7736815;22;96315;-67
2023/02/19 11:08:22;;;;;;;;;5.00;5.00;;;;;12.72;58.01;98292.69;7737002;22;96813;-68
2023/02/19 11:11:30;;;;;;;;;4.00;4.00;;;;;12.48;57.57;98299.41;7736368;22;96351;-68
2023/02/19 11:14:34;;;;;;;;;6.50;5.50;;;;;12.35;57.20;98305.97;7734510;22;96329;-67
2023/02/19 11:17:38;;;;;;;;;4.00;4.00;;;;;12.17;57.30;98322.41;7735977;22;96217;-67
2023/02/19 11:20:53;;;;;;;;;6.25;6.00;;;;;12.00;56.80;98318.91;7683066;22;97638;-64
2023/02/19 11:23:56;;;;;;;;;4.75;4.75;;;;;12.00;56.56;98327.84;7735583;22;96354;-66
2023/02/19 11:27:01;;;;;;;;;7.20;7.20;;;;;11.85;56.42;98330.25;7706326;22;98793;-66
2023/02/19 11:30:33;;;;;;;;;5.00;4.00;;;;;11.81;57.25;98331.81;7735436;22;96578;-65
2023/02/19 11:33:44;;;;;;;;;6.60;6.60;;;;;11.71;57.13;98326.19;7734199;22;96879;-65
2023/02/19 11:37:08;;;;;;;;;3.00;3.00;;;;;11.60;56.04;98327.06;7735383;22;96250;-65
2023/02/19 11:40:12;;;;;;;;;4.00;4.00;;;;;11.68;55.80;98338.28;7707703;22;96344;-66
2023/02/19 11:43:39;;;;;;;;;4.00;4.00;;;;;11.60;55.27;98341.38;7735492;22;96201;-66
2023/02/19 11:46:57;;;;;;;;;7.00;6.50;;;;;11.61;55.15;98353.84;7735802;22;96296;-67
2023/02/19 11:50:10;;;;;;;;;6.40;5.40;;;;;11.58;55.75;98354.28;7736716;22;96475;-66
2023/02/19 11:53:24;;;;;;;;;5.00;5.00;;;;;11.29;55.66;98312.97;7735045;22;96863;-67
2023/02/19 11:56:33;;;;;;;;;4.60;4.60;;;;;11.50;55.94;98357.38;7735154;22;96178;-65
2023/02/19 11:59:44;;;;;;;;;4.60;4.60;;;;;11.56;56.11;98369.94;7735484;22;96193;-65
2023/02/19 12:03:02;;;;;;;;;3.50;3.50;;;;;11.63;56.00;98380.59;7733302;22;96251;-66
2023/02/19 12:06:19;;;;;;;;;5.80;5.60;;;;;11.56;55.54;98396.09;7707807;22;96419;-65
2023/02/19 12:09:40;;;;;;;;;5.00;5.00;;;;;11.54;56.09;98400.91;7733716;22;96983;-66
2023/02/19 12:12:58;;;;;;;;;4.00;4.00;;;;;11.46;56.51;98396.72;7735102;22;96682;-65
2023/02/19 12:16:10;;;;;;;;;6.00;6.00;;;;;11.46;55.86;98390.50;7736500;22;96422;-65
2023/02/19 12:19:27;;;;;;;;;7.00;7.00;;;;;11.52;55.77;98392.25;7736246;22;96290;-66
2023/02/19 12:22:33;;;;;;;;;8.00;7.60;;;;;11.58;56.11;98392.09;7707566;22;96574;-65
2023/02/19 12:25:49;;;;;;;;;6.00;5.60;;;;;11.65;56.43;98394.66;7732711;22;96743;-66
2023/02/19 12:29:23;;;;;;;;;8.00;8.00;;;;;11.68;56.21;98413.88;7735464;22;96420;-66
2023/02/19 12:32:58;;;;;;;;;8.00;7.80;;;;;11.68;56.07;98430.09;7692437;22;97952;-65
2023/02/19 12:36:14;;;;;;;;;8.40;8.00;;;;;11.68;56.38;98429.28;7707485;22;98764;-64
2023/02/19 12:39:29;;;;;;;;;6.60;5.60;;;;;11.66;56.38;98426.00;7734888;22;96445;-64
2023/02/19 12:42:48;;;;;;;;;4.75;4.75;;;;;11.70;56.66;98435.25;7734322;22;96148;-64
2023/02/19 12:45:57;;;;;;;;;5.25;5.25;;;;;11.73;56.94;98441.03;7707289;22;98865;-65
2023/02/19 12:49:10;;;;;;;;;4.25;4.00;;;;;11.73;56.28;98426.69;7683745;22;99056;-64
2023/02/19 12:52:21;;;;;;;;;4.00;4.00;;;;;11.78;56.03;98429.50;7736897;22;96432;-65
2023/02/19 12:55:29;;;;;;;;;7.00;6.00;;;;;11.86;55.86;98439.13;7735100;22;96358;-65
2023/02/19 12:58:41;;;;;;;;;7.40;7.40;;;;;11.85;54.78;98446.41;7736127;22;96536;-63
2023/02/19 13:01:50;;;;;;;;;5.20;5.20;;;;;11.87;54.68;98446.16;7709254;22;99307;-64
2023/02/19 13:05:02;;;;;;;;;7.00;6.00;;;;;11.86;54.00;98453.44;7736416;22;97960;-63
2023/02/19 13:08:13;;;;;;;;;7.40;7.00;;;;;11.84;53.97;98452.84;7710129;22;97511;-63
2023/02/19 13:11:19;;;;;;;;;8.60;8.00;;;;;11.80;53.90;98440.91;7736487;22;96391;-64
2023/02/19 13:14:29;;;;;;;;;6.60;6.60;;;;;11.84;53.64;98442.06;7737807;22;96739;-65
2023/02/19 13:17:38;;;;;;;;;7.40;7.40;;;;;11.88;53.45;98445.91;7738328;22;96277;-65
2023/02/19 13:20:45;;;;;;;;;8.00;8.00;;;;;11.87;53.55;98451.56;7708468;22;96239;-65
2023/02/19 13:24:01;;;;;;;;;11.00;11.00;;;;;11.71;53.31;98461.22;7737434;22;96282;-66
2023/02/19 13:27:21;;;;;;;;;9.00;9.00;;;;;11.51;53.57;98445.41;7709901;22;96494;-65
2023/02/19 13:30:49;;;;;;;;;11.25;9.75;;;;;11.60;52.66;98470.97;7737094;22;96435;-65
2023/02/19 13:34:07;;;;;;;;;9.00;9.00;;;;;11.45;nan;98461.72;7737224;22;96239;-65
2023/02/19 13:37:11;;;;;;;;;11.80;10.00;;;;;11.54;52.92;98474.63;7737161;22;96962;-67
2023/02/19 13:40:26;;;;;;;;;12.00;11.00;;;;;11.37;52.73;98478.31;7738156;22;97070;-65
2023/02/19 13:43:33;;;;;;;;;9.00;8.80;;;;;11.40;52.90;98477.81;7737355;22;96265;-66
2023/02/19 13:46:42;;;;;;;;;10.40;9.40;;;;;11.36;52.74;98492.84;7736673;22;96698;-64
2023/02/19 13:49:49;;;;;;;;;9.00;9.00;;;;;11.33;53.18;98493.34;7735981;22;96239;-66
2023/02/19 13:52:56;;;;;;;;;10.75;10.00;;;;;11.34;52.63;98508.47;7735189;22;96760;-65
2023/02/19 13:55:59;;;;;;;;;8.00;7.67;;;;;11.32;51.88;98513.28;7735082;22;96204;-66
2023/02/19 13:59:22;;;;;;;;;7.00;7.00;;;;;11.37;51.52;98516.91;7734577;22;96030;-65
2023/02/19 14:02:33;;;;;;;;;6.25;6.25;;;;;11.21;50.53;98518.44;7707607;22;96510;-65
2023/02/19 14:06:08;;;;;;;;;5.50;5.50;;;;;11.00;50.00;98537.88;7734707;22;96186;-64
2023/02/19 14:09:42;;;;;;;;;7.20;6.80;;;;;11.01;50.97;98541.41;7579904;23;97332;-66
2023/02/19 14:12:46;;;;;;;;;8.00;8.00;;;;;10.87;50.83;98546.19;7556382;23;98460;-65
2023/02/19 14:15:50;;;;;;;;;5.00;5.00;;;;;10.79;50.68;98560.84;7554190;23;97317;-66
2023/02/19 14:18:55;;;;;;;;;6.00;5.00;;;;;10.62;50.45;98567.09;7580955;23;96259;-65
2023/02/19 14:21:58;;;;;;;;;5.20;4.40;;;;;10.62;50.39;98578.72;7581461;23;96322;-65
2023/02/19 14:25:10;;;;;;;;;5.60;5.00;;;;;10.42;50.99;98552.03;7554261;23;96876;-65
2023/02/19 14:28:32;;;;;;;;;7.00;6.60;;;;;10.52;50.88;98581.13;7555261;23;96413;-65
2023/02/19 14:31:38;;;;;;;;;8.00;7.00;;;;;10.53;51.51;98585.47;7579574;23;96835;-65
2023/02/19 14:34:44;;;;;;;;;6.60;6.00;;;;;10.59;52.16;98591.84;7553896;23;96812;-66
2023/02/19 14:37:50;;;;;;;;;5.00;5.00;;;;;10.61;51.55;98604.03;7580261;23;96362;-65
2023/02/19 14:40:54;;;;;;;;;5.80;5.00;;;;;10.60;51.78;98606.97;7556212;23;96448;-65
2023/02/19 14:44:00;;;;;;;;;6.60;5.60;;;;;10.48;51.54;98617.69;7673327;22;97316;-66
2023/02/19 14:47:06;;;;;;;;;5.40;4.40;;;;;10.48;51.57;98631.16;7733763;22;96323;-66
2023/02/19 14:50:15;;;;;;;;;4.20;4.20;;;;;10.56;51.51;98646.19;7734645;22;96822;-67
2023/02/19 14:53:22;;;;;;;;;6.00;6.00;;;;;10.65;50.96;98650.25;7708246;22;96673;-64
2023/02/19 14:56:29;;;;;;;;;10.00;9.00;;;;;10.65;50.54;98650.25;7707937;22;96218;-65
2023/02/19 14:59:34;;;;;;;;;7.00;7.00;;;;;10.68;50.54;98660.56;7734767;22;96375;-65
2023/02/19 15:02:42;;;;;;;;;7.00;7.00;;;;;10.75;50.01;98664.78;7734543;22;96523;-64
2023/02/19 15:05:54;;;;;;;;;9.00;8.00;;;;;10.72;49.63;98661.75;7734797;22;96828;-66
2023/02/19 15:09:01;;;;;;;;;9.00;9.00;;;;;10.69;49.76;98667.59;7682423;22;98819;-64
2023/02/19 15:12:06;;;;;;;;;12.40;11.40;;;;;10.68;50.03;98674.88;7734634;22;96435;-65